EDLW

Dortmund Airport

Dortmund, Germany
METAR EDLW 210950Z 28012G25KT 230V330 9999 FEW022 BKN026 18/13 Q1016
Observed Flight Rules
Jun-21 @ 09:50 UTC (12 minutes ago) Marginal Visual Flight Rules
Wind Visibility Clouds
280° at 12 knots
 Gusting to 25 knots
10,000+ meters
  • Few at 2,200' AGL
  • Broken at 2,600' AGL
Temperatures Readings
Current 18°C / 64°F
Dewpoint 13°C / 55°F
Humidity 73%
Altimeter 30" Hg
Pressure 1016 hPa
Elevation 127
METAR EDLW 210950Z 28012G25KT 230V330 9999 FEW022 BKN026 18/13 Q1016
Observed Flight Rules
Jun-21 @ 09:50 UTC
(12 minutes ago)
MVFR
Wind Visibility
280° at 12 knots
 Gusting to 25 knots
10,000+ meters
Clouds
  • Few at 2,200' AGL
  • Broken at 2,600' AGL
Temperature Dewpoint
18°C / 64°F 13°C / 55°F
Humidity Altimeter Pressure
73% 30" Hg 1016 hPa